Huvudsida
METAR-TAF:

METAR-TAF

Flygplatser :

Librevilles internationella flygplats

Libreville, Gabon

latitud: 00-27N, longitud: 009-25E, höjd: 12 m

Aktuellt väderrapport

Denna rapport gjordes för 26 minuter sedan, klockan 09:30 UTC
Vind 8 kt från syd
Temperatur 24°C
Fuktighet 89%
Tryck 1016 hPa
Sikt 10 km eller mer
Spridda moln på en höjd av 400 ft
Spridda moln på en höjd av 900 ft
Brutna moln på en höjd av 2000 ft

METAR: FOOL 190930Z 18008KT 9999 SCT004 SCT009 BKN020 24/22 Q1016 NOSIG

Tid: 10:56 (09:56 UTC)

Väderprognos

Denna rapport gjordes för 4 timmar och 56 minuter sedan, klockan 05:00 UTC
Prognos gäller från 19 kl. 06 UTC till 20 kl. 12 UTC
Vind 7 kt från syd/sydväst
Sikt 10 km eller mer
Spridda moln på en höjd av 1000 ft
Brutna moln på en höjd av 3000 ft

TAF: FOOL 190500Z 1906/2012 20007KT 9999 SCT010 BKN030

Aktuella väderrapporter och prognoser från 4000 flygplatser (METAR- och TAF-rapporter).

De tillgängliga stationerna syns som gula och röda prickar på kartan.

För musen över prickarna för att se namnen på stationerna.

Klicka sedan för att få väderrapporter och prognoser.

För att ändra kartan: Klicka på de gröna knapparna med ett svart kors på för att zooma in; den gröna knappen med ett streck på för att zooma ut; eller på de gröna pilarna för angränsande kartor.


METAR-TAF: